Time;durP1;ratioP1;P1;durP2;ratioP2;P2;SDS_P1;SDS_P2;PMS_P1;PMS_P2;Temp;Humidity;BMP_temperature;BMP_pressure;BME280_temperature;BME280_humidity;BME280_pressure;Samples;Min_cycle;Max_cycle;Signal;HPM_P1;HPM_P2
2021/01/29 00:01:38;;;;;;;16.73;6.50;;;;;;;;;;5004233;28;20094;-61
2021/01/29 00:04:04;;;;;;;14.02;5.80;;;;;;;;;;4997243;28;20042;-60
2021/01/29 00:06:31;;;;;;;19.48;6.70;;;;;;;;;;4985090;28;20055;-61
2021/01/29 00:09:00;;;;;;;18.55;6.32;;;;;;;;;;4998869;28;20074;-60
2021/01/29 00:11:26;;;;;;;19.70;7.03;;;;;;;;;;5000838;28;20060;-60
2021/01/29 00:13:52;;;;;;;21.05;7.82;;;;;;;;;;4984312;28;20046;-60
2021/01/29 00:16:18;;;;;;;19.25;6.38;;;;;;;;;;5025718;28;20037;-61
2021/01/29 00:18:45;;;;;;;19.33;6.82;;;;;;;;;;5027800;28;20045;-60
2021/01/29 00:21:11;;;;;;;15.85;6.15;;;;;;;;;;4997825;28;20046;-60
2021/01/29 00:23:37;;;;;;;21.30;7.30;;;;;;;;;;5003208;28;20109;-60
2021/01/29 00:26:03;;;;;;;22.77;7.35;;;;;;;;;;4995566;28;20046;-61
2021/01/29 00:28:30;;;;;;;18.92;6.60;;;;;;;;;;5003128;28;20057;-61
2021/01/29 00:30:56;;;;;;;21.60;6.68;;;;;;;;;;4996575;28;20049;-61
2021/01/29 00:33:24;;;;;;;20.23;7.35;;;;;;;;;;5006903;28;20045;-61
2021/01/29 00:35:51;;;;;;;18.33;6.27;;;;;;;;;;5001983;28;20041;-60
2021/01/29 00:38:17;;;;;;;18.88;6.85;;;;;;;;;;5008983;28;20042;-61
2021/01/29 00:40:43;;;;;;;20.10;7.40;;;;;;;;;;5020504;28;20046;-61
2021/01/29 00:43:09;;;;;;;23.10;7.07;;;;;;;;;;4998398;28;20070;-61
2021/01/29 00:45:36;;;;;;;23.40;7.88;;;;;;;;;;4987588;28;20030;-61
2021/01/29 00:48:03;;;;;;;20.45;7.85;;;;;;;;;;5024826;28;20041;-60
2021/01/29 00:50:29;;;;;;;21.52;8.07;;;;;;;;;;5001767;28;20104;-61
2021/01/29 00:52:56;;;;;;;23.67;8.27;;;;;;;;;;5011806;28;20026;-61
2021/01/29 00:55:22;;;;;;;7.32;2.53;;;;;;;;;;5016082;28;20037;-60
2021/01/29 00:57:49;;;;;;;24.17;7.97;;;;;;;;;;4986050;28;20042;-61
2021/01/29 01:00:16;;;;;;;19.30;7.32;;;;;;;;;;4996356;28;20040;-61
2021/01/29 01:02:42;;;;;;;21.17;6.68;;;;;;;;;;5000321;28;20120;-61
2021/01/29 01:05:10;;;;;;;24.10;8.20;;;;;;;;;;5009586;28;20050;-61
2021/01/29 01:07:36;;;;;;;23.13;7.65;;;;;;;;;;5015983;28;20089;-61
2021/01/29 01:10:03;;;;;;;28.08;8.68;;;;;;;;;;5021589;28;20053;-60
2021/01/29 01:12:29;;;;;;;25.65;7.93;;;;;;;;;;5008952;28;20057;-60
2021/01/29 01:14:55;;;;;;;24.52;7.57;;;;;;;;;;5023075;28;20038;-60
2021/01/29 01:17:22;;;;;;;26.15;8.48;;;;;;;;;;5018052;28;20049;-60
2021/01/29 01:19:48;;;;;;;25.48;8.50;;;;;;;;;;5045502;28;20040;-60
2021/01/29 01:22:15;;;;;;;21.17;7.70;;;;;;;;;;5022641;28;20062;-61
2021/01/29 01:24:41;;;;;;;25.05;9.27;;;;;;;;;;5003017;28;20116;-60
2021/01/29 01:27:08;;;;;;;22.90;8.07;;;;;;;;;;4996313;28;20080;-60
2021/01/29 01:29:34;;;;;;;27.08;8.43;;;;;;;;;;5019613;28;20052;-61
2021/01/29 01:38:12;;;;;;;23.85;8.18;;;;;;;;;;5023242;28;20111;-60
2021/01/29 01:40:39;;;;;;;19.20;6.60;;;;;;;;;;5026655;28;20036;-61
2021/01/29 01:43:06;;;;;;;18.65;6.30;;;;;;;;;;5021137;28;20085;-60
2021/01/29 01:45:50;;;;;;;23.38;7.50;;;;;;;;;;5025700;28;20037;-61
2021/01/29 01:48:23;;;;;;;16.73;6.38;;;;;;;;;;5021804;28;20579;-60
2021/01/29 01:50:49;;;;;;;16.23;5.72;;;;;;;;;;5043144;28;20037;-60
2021/01/29 01:53:18;;;;;;;24.08;6.90;;;;;;;;;;5013938;28;20049;-60
2021/01/29 01:55:45;;;;;;;18.58;6.70;;;;;;;;;;5007743;28;20034;-61
2021/01/29 01:58:14;;;;;;;21.00;6.85;;;;;;;;;;5000426;28;20061;-60
2021/01/29 02:00:40;;;;;;;21.48;7.38;;;;;;;;;;5023250;28;20038;-60
2021/01/29 02:03:08;;;;;;;16.17;6.07;;;;;;;;;;5022612;28;20127;-60
2021/01/29 02:05:35;;;;;;;19.73;6.47;;;;;;;;;;5023111;28;20037;-60
2021/01/29 02:08:03;;;;;;;21.67;7.75;;;;;;;;;;5021319;28;20042;-61
2021/01/29 02:10:29;;;;;;;17.42;6.18;;;;;;;;;;5013217;28;20044;-60
2021/01/29 02:12:55;;;;;;;16.27;6.20;;;;;;;;;;5006589;28;20077;-60
2021/01/29 02:15:23;;;;;;;13.88;5.18;;;;;;;;;;5012522;28;20029;-60
2021/01/29 02:18:02;;;;;;;25.97;8.60;;;;;;;;;;5024206;28;20037;-60
2021/01/29 02:20:36;;;;;;;22.50;6.63;;;;;;;;;;5020644;28;20045;-60
2021/01/29 02:23:20;;;;;;;20.65;7.15;;;;;;;;;;5009249;28;20131;-61
2021/01/29 02:26:04;;;;;;;17.70;6.38;;;;;;;;;;5009071;28;20052;-61
2021/01/29 02:28:39;;;;;;;18.67;6.95;;;;;;;;;;5007670;28;20041;-61
2021/01/29 02:31:22;;;;;;;13.95;5.43;;;;;;;;;;4994368;28;20053;-61
2021/01/29 02:34:09;;;;;;;16.23;5.72;;;;;;;;;;5004463;28;20078;-61
2021/01/29 02:36:52;;;;;;;17.35;6.55;;;;;;;;;;5000365;28;20046;-60
2021/01/29 02:39:28;;;;;;;15.73;6.35;;;;;;;;;;5021619;28;20049;-60
2021/01/29 02:42:01;;;;;;;16.25;5.88;;;;;;;;;;5018405;28;20057;-61
2021/01/29 02:44:37;;;;;;;16.63;6.25;;;;;;;;;;5020543;28;20050;-61
2021/01/29 02:47:07;;;;;;;16.50;6.38;;;;;;;;;;5031895;28;20057;-60
2021/01/29 02:49:39;;;;;;;20.40;6.45;;;;;;;;;;5043986;28;20036;-61
2021/01/29 02:52:11;;;;;;;16.10;6.07;;;;;;;;;;5032482;28;20053;-61
2021/01/29 02:54:40;;;;;;;16.92;6.93;;;;;;;;;;5020745;28;20054;-61
2021/01/29 02:57:12;;;;;;;18.10;6.47;;;;;;;;;;5018111;28;20050;-61
2021/01/29 02:59:40;;;;;;;15.50;6.32;;;;;;;;;;5023447;28;20038;-61
2021/01/29 03:02:08;;;;;;;18.10;6.82;;;;;;;;;;5021826;28;20055;-61
2021/01/29 03:04:36;;;;;;;16.65;6.75;;;;;;;;;;5024825;28;20087;-61
2021/01/29 03:07:05;;;;;;;16.48;5.53;;;;;;;;;;5007144;28;20065;-61
2021/01/29 03:09:33;;;;;;;18.15;5.07;;;;;;;;;;5021635;28;20060;-61
2021/01/29 03:12:04;;;;;;;14.63;5.75;;;;;;;;;;5018489;28;20052;-61
2021/01/29 03:14:34;;;;;;;17.25;6.40;;;;;;;;;;5038465;28;20056;-60
2021/01/29 03:17:05;;;;;;;17.35;5.93;;;;;;;;;;5030938;28;20029;-61
2021/01/29 03:19:34;;;;;;;14.80;5.20;;;;;;;;;;5024617;28;20041;-61
2021/01/29 03:22:00;;;;;;;;;;;;;;;;;;5026915;28;20043;-61
2021/01/29 03:24:28;;;;;;;12.82;5.13;;;;;;;;;;5043385;28;19968;-61
2021/01/29 03:26:58;;;;;;;14.43;5.28;;;;;;;;;;5032760;28;20110;-61
2021/01/29 03:29:29;;;;;;;16.38;6.32;;;;;;;;;;5024549;28;20053;-60
2021/01/29 03:31:57;;;;;;;13.98;5.90;;;;;;;;;;5012762;28;20042;-61
2021/01/29 03:34:28;;;;;;;18.88;5.60;;;;;;;;;;5022560;28;20037;-61
2021/01/29 03:36:57;;;;;;;13.50;5.18;;;;;;;;;;5020493;28;20072;-61
2021/01/29 03:39:25;;;;;;;13.98;4.85;;;;;;;;;;5020776;28;20065;-60
2021/01/29 03:41:56;;;;;;;11.88;4.38;;;;;;;;;;5017219;28;20029;-61
2021/01/29 03:44:23;;;;;;;14.15;4.95;;;;;;;;;;5001473;28;20095;-61
2021/01/29 03:46:55;;;;;;;12.75;5.20;;;;;;;;;;5002615;28;20045;-61
2021/01/29 03:49:25;;;;;;;13.73;5.50;;;;;;;;;;5020735;28;20114;-61
2021/01/29 03:51:57;;;;;;;13.57;5.38;;;;;;;;;;5022712;28;20056;-61
2021/01/29 03:54:26;;;;;;;16.73;5.30;;;;;;;;;;5011037;28;20050;-61
2021/01/29 03:57:07;;;;;;;17.67;5.80;;;;;;;;;;4999791;28;20050;-61
2021/01/29 03:59:35;;;;;;;13.27;5.45;;;;;;;;;;5018276;28;20034;-61
2021/01/29 04:02:07;;;;;;;13.93;5.10;;;;;;;;;;5021236;28;20029;-61
2021/01/29 04:04:34;;;;;;;12.25;4.97;;;;;;;;;;5022532;28;20030;-60
2021/01/29 04:07:16;;;;;;;14.23;5.60;;;;;;;;;;5001350;28;20054;-61
2021/01/29 04:09:46;;;;;;;13.68;5.35;;;;;;;;;;5026680;28;20057;-61
2021/01/29 04:12:15;;;;;;;14.43;4.32;;;;;;;;;;5043136;28;20052;-61
2021/01/29 04:14:45;;;;;;;9.82;4.40;;;;;;;;;;5039123;28;20059;-61
2021/01/29 04:17:20;;;;;;;12.85;5.10;;;;;;;;;;5043629;28;20049;-61
2021/01/29 04:19:47;;;;;;;13.52;4.88;;;;;;;;;;5025729;28;20082;-60
2021/01/29 04:22:18;;;;;;;10.63;4.38;;;;;;;;;;5023658;28;20041;-60
2021/01/29 04:24:47;;;;;;;10.75;4.00;;;;;;;;;;5008990;28;20124;-61
2021/01/29 04:27:15;;;;;;;12.25;4.43;;;;;;;;;;5022417;28;20050;-60
2021/01/29 04:29:45;;;;;;;10.17;4.30;;;;;;;;;;5018523;28;20036;-61
2021/01/29 04:32:13;;;;;;;9.10;4.15;;;;;;;;;;5038693;28;20053;-60
2021/01/29 04:34:41;;;;;;;10.00;4.33;;;;;;;;;;5022519;28;20042;-61
2021/01/29 04:37:09;;;;;;;12.32;4.68;;;;;;;;;;5003441;28;20286;-60
2021/01/29 04:39:37;;;;;;;12.73;4.78;;;;;;;;;;5004889;28;20163;-60
2021/01/29 04:42:05;;;;;;;13.88;5.25;;;;;;;;;;5036967;28;20060;-60
2021/01/29 04:44:44;;;;;;;9.93;4.32;;;;;;;;;;5017574;28;20090;-60
2021/01/29 04:47:21;;;;;;;12.10;4.93;;;;;;;;;;5020698;28;20038;-60
2021/01/29 04:50:08;;;;;;;13.43;4.82;;;;;;;;;;5021419;28;20058;-61
2021/01/29 04:52:41;;;;;;;13.98;4.95;;;;;;;;;;5004589;28;20052;-61
2021/01/29 04:55:20;;;;;;;11.18;4.78;;;;;;;;;;5038719;28;20053;-60
2021/01/29 04:57:52;;;;;;;12.32;4.93;;;;;;;;;;5043255;28;20052;-61
2021/01/29 05:00:38;;;;;;;10.88;4.72;;;;;;;;;;5039960;28;20118;-60
2021/01/29 05:03:19;;;;;;;11.20;5.00;;;;;;;;;;5038358;28;20126;-60
2021/01/29 05:06:02;;;;;;;13.15;5.15;;;;;;;;;;5030610;28;20042;-60
2021/01/29 05:08:46;;;;;;;10.57;4.50;;;;;;;;;;5006351;28;20042;-61
2021/01/29 05:11:22;;;;;;;11.25;5.00;;;;;;;;;;5009353;28;20061;-60
2021/01/29 05:14:02;;;;;;;10.23;4.57;;;;;;;;;;5024237;28;20042;-60
2021/01/29 05:16:47;;;;;;;12.85;5.13;;;;;;;;;;4989213;28;20045;-60
2021/01/29 05:19:34;;;;;;;11.88;4.97;;;;;;;;;;5043722;28;20055;-61
2021/01/29 05:22:11;;;;;;;9.35;4.25;;;;;;;;;;4982092;28;20042;-61
2021/01/29 05:24:56;;;;;;;12.32;4.85;;;;;;;;;;5019926;28;20042;-60
2021/01/29 05:27:48;;;;;;;11.30;4.35;;;;;;;;;;5007531;28;20070;-61
2021/01/29 05:30:35;;;;;;;15.75;5.40;;;;;;;;;;4982765;28;20088;-61
2021/01/29 05:33:18;;;;;;;10.45;4.20;;;;;;;;;;4992749;28;20042;-60
2021/01/29 05:36:02;;;;;;;11.52;3.20;;;;;;;;;;5006213;28;20038;-60
2021/01/29 05:38:46;;;;;;;7.53;3.35;;;;;;;;;;5035786;28;20041;-60
2021/01/29 05:41:25;;;;;;;9.27;3.10;;;;;;;;;;5040434;28;20033;-60
2021/01/29 05:44:02;;;;;;;7.70;2.95;;;;;;;;;;5013263;28;20037;-60
2021/01/29 05:46:30;;;;;;;9.02;3.33;;;;;;;;;;5024035;28;20041;-61
2021/01/29 05:49:09;;;;;;;9.55;2.83;;;;;;;;;;5001409;28;20056;-60
2021/01/29 05:52:02;;;;;;;6.85;2.53;;;;;;;;;;5000427;28;20141;-61
2021/01/29 05:54:37;;;;;;;5.68;2.25;;;;;;;;;;5002886;28;20042;-60
2021/01/29 05:57:23;;;;;;;7.07;2.50;;;;;;;;;;5001109;28;20046;-60
2021/01/29 05:59:54;;;;;;;6.57;2.47;;;;;;;;;;4993335;28;20124;-60
2021/01/29 06:02:39;;;;;;;5.47;2.03;;;;;;;;;;5003324;28;20108;-60
2021/01/29 06:05:22;;;;;;;5.22;2.33;;;;;;;;;;5009112;28;20126;-61
2021/01/29 06:08:03;;;;;;;6.03;2.20;;;;;;;;;;5018217;28;20098;-60
2021/01/29 06:10:52;;;;;;;5.88;2.17;;;;;;;;;;5001931;28;20049;-60
2021/01/29 06:13:33;;;;;;;4.65;1.98;;;;;;;;;;5007219;28;20051;-60
2021/01/29 06:16:17;;;;;;;8.00;1.88;;;;;;;;;;5025522;28;20033;-60
2021/01/29 06:19:03;;;;;;;5.80;1.98;;;;;;;;;;5028265;28;20040;-61
2021/01/29 06:21:39;;;;;;;4.35;1.35;;;;;;;;;;5060884;28;20039;-60
2021/01/29 06:24:24;;;;;;;4.15;1.98;;;;;;;;;;5030668;28;20085;-60
2021/01/29 06:27:05;;;;;;;5.20;1.77;;;;;;;;;;5045953;28;20074;-61
2021/01/29 06:29:41;;;;;;;4.22;1.63;;;;;;;;;;5026779;28;20041;-60
2021/01/29 06:32:22;;;;;;;4.85;2.08;;;;;;;;;;5024102;28;20060;-60
2021/01/29 06:34:52;;;;;;;4.57;2.05;;;;;;;;;;5019377;28;20040;-61
2021/01/29 06:37:28;;;;;;;4.28;1.48;;;;;;;;;;5032998;28;20049;-59
2021/01/29 06:40:01;;;;;;;3.42;1.80;;;;;;;;;;5007981;28;20224;-60
2021/01/29 06:42:48;;;;;;;2.95;1.38;;;;;;;;;;5001780;28;20052;-60
2021/01/29 06:45:33;;;;;;;6.63;2.17;;;;;;;;;;5004528;28;20049;-60
2021/01/29 06:48:06;;;;;;;6.45;1.83;;;;;;;;;;5021313;28;20022;-60
2021/01/29 06:50:42;;;;;;;3.88;1.85;;;;;;;;;;5030071;28;20107;-60
2021/01/29 06:53:32;;;;;;;4.90;1.40;;;;;;;;;;5041712;28;20037;-60
2021/01/29 06:56:16;;;;;;;5.22;1.42;;;;;;;;;;5014903;28;20052;-60
2021/01/29 06:58:58;;;;;;;5.10;1.50;;;;;;;;;;5022053;28;20055;-60
2021/01/29 07:01:43;;;;;;;3.42;1.58;;;;;;;;;;5021060;28;20045;-60
2021/01/29 07:04:33;;;;;;;3.95;1.70;;;;;;;;;;5020259;28;20086;-60
2021/01/29 07:07:02;;;;;;;3.22;1.77;;;;;;;;;;5013392;28;20045;-60
2021/01/29 07:09:41;;;;;;;6.80;1.67;;;;;;;;;;5004074;28;20042;-60
2021/01/29 07:12:25;;;;;;;4.40;1.70;;;;;;;;;;5018299;28;20045;-60
2021/01/29 07:14:59;;;;;;;5.28;1.67;;;;;;;;;;5023964;28;20037;-60
2021/01/29 07:17:33;;;;;;;3.22;1.80;;;;;;;;;;5014478;28;20057;-60
2021/01/29 07:20:03;;;;;;;8.90;2.45;;;;;;;;;;5003136;28;20049;-60
2021/01/29 07:22:36;;;;;;;10.02;1.70;;;;;;;;;;5011183;28;20055;-60
2021/01/29 07:25:05;;;;;;;3.28;1.60;;;;;;;;;;5024923;28;20122;-60
2021/01/29 07:27:44;;;;;;;6.55;1.67;;;;;;;;;;5019258;28;20033;-60
2021/01/29 07:30:17;;;;;;;3.70;1.08;;;;;;;;;;5025044;28;20048;-60
2021/01/29 07:32:46;;;;;;;2.60;1.55;;;;;;;;;;5018489;28;20073;-61
2021/01/29 07:35:17;;;;;;;3.20;1.30;;;;;;;;;;5024974;28;20047;-61
2021/01/29 07:38:07;;;;;;;2.88;1.20;;;;;;;;;;5005996;28;20044;-61
2021/01/29 07:40:42;;;;;;;2.22;0.90;;;;;;;;;;4984807;28;20056;-61
2021/01/29 07:43:16;;;;;;;2.35;0.77;;;;;;;;;;5004516;28;20045;-60
2021/01/29 07:45:53;;;;;;;3.78;1.27;;;;;;;;;;5005401;28;20099;-60
2021/01/29 07:48:34;;;;;;;8.05;3.38;;;;;;;;;;5017494;28;20033;-60
2021/01/29 07:51:03;;;;;;;3.67;1.17;;;;;;;;;;5024752;28;20049;-60
2021/01/29 07:53:36;;;;;;;4.10;1.20;;;;;;;;;;5021375;28;20105;-60
2021/01/29 07:56:14;;;;;;;9.10;1.17;;;;;;;;;;5033059;28;20099;-60
2021/01/29 07:58:46;;;;;;;2.10;1.08;;;;;;;;;;5015477;28;20037;-60
2021/01/29 08:01:30;;;;;;;5.45;1.77;;;;;;;;;;5028275;28;20068;-60
2021/01/29 08:04:05;;;;;;;3.92;1.42;;;;;;;;;;5021078;28;20059;-60
2021/01/29 08:06:33;;;;;;;5.30;1.40;;;;;;;;;;5035165;28;20057;-60
2021/01/29 08:09:02;;;;;;;7.80;2.30;;;;;;;;;;5015319;28;20059;-60
2021/01/29 08:11:29;;;;;;;6.28;2.20;;;;;;;;;;5039213;28;20065;-60
2021/01/29 08:14:10;;;;;;;7.97;1.45;;;;;;;;;;5019582;28;20045;-60
2021/01/29 08:16:55;;;;;;;11.43;2.10;;;;;;;;;;5023713;28;20042;-60
2021/01/29 08:19:26;;;;;;;6.20;1.70;;;;;;;;;;5005353;28;20037;-60
2021/01/29 08:22:06;;;;;;;7.43;1.70;;;;;;;;;;5000770;28;20152;-60
2021/01/29 08:24:39;;;;;;;14.23;2.58;;;;;;;;;;5014559;28;20033;-60
2021/01/29 08:27:24;;;;;;;19.95;2.95;;;;;;;;;;5008874;28;20052;-60
2021/01/29 08:29:58;;;;;;;11.45;1.90;;;;;;;;;;5003334;28;20034;-60
2021/01/29 08:32:33;;;;;;;8.75;1.50;;;;;;;;;;5018642;28;20085;-60
2021/01/29 08:35:34;;;;;;;6.80;1.48;;;;;;;;;;5001624;28;20103;-60
2021/01/29 08:38:06;;;;;;;20.75;2.28;;;;;;;;;;4946542;28;20055;-60
2021/01/29 08:40:35;;;;;;;26.80;2.22;;;;;;;;;;4951151;28;20053;-59
2021/01/29 08:43:16;;;;;;;16.90;1.50;;;;;;;;;;4991883;28;20046;-60
2021/01/29 08:45:49;;;;;;;17.83;1.70;;;;;;;;;;5002957;28;20054;-60
2021/01/29 08:48:34;;;;;;;24.25;2.03;;;;;;;;;;5006285;28;20049;-60
2021/01/29 08:51:18;;;;;;;20.70;2.38;;;;;;;;;;5015699;28;20045;-60
2021/01/29 08:53:54;;;;;;;19.27;1.98;;;;;;;;;;5025173;28;20051;-60
2021/01/29 08:56:25;;;;;;;15.82;1.77;;;;;;;;;;5004125;28;20034;-60
2021/01/29 08:58:55;;;;;;;16.17;1.77;;;;;;;;;;5007021;28;20057;-60
2021/01/29 09:01:23;;;;;;;16.17;1.77;;;;;;;;;;5001586;28;20119;-60
2021/01/29 09:03:53;;;;;;;16.23;1.95;;;;;;;;;;5004917;28;20054;-60
2021/01/29 09:06:22;;;;;;;19.13;2.67;;;;;;;;;;5033705;28;20041;-60
2021/01/29 09:09:00;;;;;;;19.60;2.20;;;;;;;;;;5045330;28;20049;-60
2021/01/29 09:11:29;;;;;;;26.98;3.92;;;;;;;;;;5042077;28;20051;-60
2021/01/29 09:13:58;;;;;;;13.15;3.17;;;;;;;;;;5046305;28;20106;-60
2021/01/29 09:16:27;;;;;;;21.92;2.13;;;;;;;;;;5019187;28;20050;-60
2021/01/29 09:18:54;;;;;;;;;;;;;;;;;;5023485;28;20037;-60
2021/01/29 09:21:23;;;;;;;26.45;1.75;;;;;;;;;;5007632;28;19933;-60
2021/01/29 09:23:56;;;;;;;34.90;2.60;;;;;;;;;;5033525;28;20038;-60
2021/01/29 09:26:27;;;;;;;31.27;2.55;;;;;;;;;;5015668;28;20057;-60
2021/01/29 09:29:00;;;;;;;22.33;2.55;;;;;;;;;;5023045;28;20037;-60
2021/01/29 09:31:28;;;;;;;26.23;2.28;;;;;;;;;;5020809;28;20042;-60
2021/01/29 09:34:00;;;;;;;29.98;2.20;;;;;;;;;;5006436;28;20030;-60
2021/01/29 09:36:27;;;;;;;29.45;2.85;;;;;;;;;;5010216;28;20106;-60
2021/01/29 09:38:55;;;;;;;29.92;2.95;;;;;;;;;;5025625;28;20144;-60
2021/01/29 09:41:29;;;;;;;44.88;2.72;;;;;;;;;;5022210;28;20077;-60
2021/01/29 09:43:59;;;;;;;36.28;2.70;;;;;;;;;;5024943;28;20088;-60
2021/01/29 09:46:29;;;;;;;27.08;3.03;;;;;;;;;;5021421;28;20144;-61
2021/01/29 09:48:58;;;;;;;25.35;1.58;;;;;;;;;;5024929;28;20034;-60
2021/01/29 09:51:27;;;;;;;;;;;;;;;;;;5020096;28;20052;-60
2021/01/29 09:53:56;;;;;;;29.77;1.85;;;;;;;;;;5023719;28;19929;-60
2021/01/29 09:56:25;;;;;;;37.38;5.28;;;;;;;;;;5023357;28;20130;-60
2021/01/29 09:59:12;;;;;;;35.20;4.60;;;;;;;;;;5022583;28;20049;-60
2021/01/29 10:01:40;;;;;;;24.27;2.80;;;;;;;;;;5019703;28;20057;-59
2021/01/29 10:04:08;;;;;;;18.98;1.67;;;;;;;;;;5022335;28;20037;-60
2021/01/29 10:06:36;;;;;;;14.77;1.80;;;;;;;;;;5003151;28;20054;-60
2021/01/29 10:09:09;;;;;;;29.17;2.55;;;;;;;;;;5018606;28;20033;-60
2021/01/29 10:11:38;;;;;;;34.10;2.30;;;;;;;;;;5024245;28;20038;-60
2021/01/29 10:14:07;;;;;;;41.50;2.50;;;;;;;;;;5003820;28;20034;-60
2021/01/29 10:16:41;;;;;;;42.50;2.53;;;;;;;;;;5005553;28;20150;-61
2021/01/29 10:19:19;;;;;;;27.85;2.15;;;;;;;;;;5018147;28;20094;-60
2021/01/29 10:22:03;;;;;;;50.07;3.07;;;;;;;;;;5037962;28;20030;-60
2021/01/29 10:24:34;;;;;;;24.02;2.08;;;;;;;;;;5019715;28;20049;-60
2021/01/29 10:27:04;;;;;;;27.00;2.55;;;;;;;;;;5024609;28;20041;-60
2021/01/29 10:29:31;;;;;;;34.97;2.42;;;;;;;;;;5005617;28;20037;-60
2021/01/29 10:32:04;;;;;;;24.27;2.13;;;;;;;;;;5005746;28;20038;-60
2021/01/29 10:34:34;;;;;;;31.10;1.58;;;;;;;;;;5002141;28;20068;-61
2021/01/29 10:37:03;;;;;;;31.88;2.30;;;;;;;;;;4997092;28;20030;-60
2021/01/29 10:39:32;;;;;;;40.25;2.45;;;;;;;;;;5002385;28;20044;-60
2021/01/29 10:42:02;;;;;;;27.92;2.60;;;;;;;;;;5008094;28;20034;-60
2021/01/29 10:44:29;;;;;;;33.65;2.35;;;;;;;;;;5021680;28;20083;-60
2021/01/29 10:47:02;;;;;;;28.40;2.03;;;;;;;;;;5025967;28;20154;-60
2021/01/29 10:49:34;;;;;;;39.53;2.53;;;;;;;;;;5039034;28;20048;-60
2021/01/29 10:52:06;;;;;;;25.23;1.95;;;;;;;;;;5026015;28;20041;-60
2021/01/29 10:54:34;;;;;;;29.42;1.98;;;;;;;;;;5030503;28;20090;-60
2021/01/29 10:57:05;;;;;;;18.60;1.77;;;;;;;;;;5020407;28;20066;-60
2021/01/29 10:59:37;;;;;;;31.48;2.05;;;;;;;;;;5008838;28;20044;-60
2021/01/29 11:02:06;;;;;;;26.73;2.22;;;;;;;;;;5024369;28;20060;-60
2021/01/29 11:04:37;;;;;;;24.67;1.95;;;;;;;;;;5030530;28;20057;-61
2021/01/29 11:07:06;;;;;;;23.25;1.85;;;;;;;;;;5022359;28;20052;-61
2021/01/29 11:09:34;;;;;;;31.73;2.10;;;;;;;;;;5017464;28;20029;-60
2021/01/29 11:12:09;;;;;;;22.30;2.17;;;;;;;;;;5006409;28;20159;-61
2021/01/29 11:14:38;;;;;;;31.80;2.00;;;;;;;;;;5020329;28;20106;-61
2021/01/29 11:17:07;;;;;;;21.83;1.52;;;;;;;;;;5004776;28;20113;-60
2021/01/29 11:19:40;;;;;;;25.45;1.95;;;;;;;;;;5005297;28;20044;-61
2021/01/29 11:22:10;;;;;;;18.35;1.60;;;;;;;;;;5019232;28;20033;-60
2021/01/29 11:24:41;;;;;;;32.35;2.28;;;;;;;;;;5004249;28;20045;-60
2021/01/29 11:27:15;;;;;;;21.13;1.80;;;;;;;;;;5021076;28;20049;-61
2021/01/29 11:29:43;;;;;;;33.85;2.10;;;;;;;;;;5024527;28;20037;-60
2021/01/29 11:32:28;;;;;;;25.35;2.20;;;;;;;;;;5020913;28;20138;-60
2021/01/29 11:34:59;;;;;;;28.20;2.05;;;;;;;;;;5024289;28;20037;-60
2021/01/29 11:37:29;;;;;;;20.95;2.63;;;;;;;;;;5020699;28;20061;-60
2021/01/29 11:39:58;;;;;;;36.08;2.38;;;;;;;;;;5024158;28;20041;-60
2021/01/29 11:42:30;;;;;;;34.55;2.20;;;;;;;;;;5020442;28;20033;-60
2021/01/29 11:44:58;;;;;;;27.50;2.15;;;;;;;;;;5022957;28;20029;-60
2021/01/29 11:47:25;;;;;;;;;;;;;;;;;;5007456;28;20037;-61
2021/01/29 11:49:58;;;;;;;36.83;2.20;;;;;;;;;;5002848;28;19983;-60
2021/01/29 11:52:28;;;;;;;11.18;1.63;;;;;;;;;;5001619;28;20049;-60
2021/01/29 11:54:57;;;;;;;25.80;2.35;;;;;;;;;;5004017;28;20042;-60
2021/01/29 11:57:31;;;;;;;33.80;2.20;;;;;;;;;;5002656;28;20045;-61
2021/01/29 12:00:00;;;;;;;28.27;1.95;;;;;;;;;;5004796;28;20042;-61
2021/01/29 12:02:31;;;;;;;44.25;2.65;;;;;;;;;;5020101;28;20155;-60
2021/01/29 12:05:16;;;;;;;33.33;2.55;;;;;;;;;;5004353;28;20069;-61
2021/01/29 12:07:46;;;;;;;28.42;2.50;;;;;;;;;;5001637;28;20046;-60
2021/01/29 12:10:19;;;;;;;14.00;1.55;;;;;;;;;;5045298;28;20088;-60
2021/01/29 12:12:49;;;;;;;45.50;3.05;;;;;;;;;;5014732;28;20049;-60
2021/01/29 12:15:18;;;;;;;40.95;2.90;;;;;;;;;;5008199;28;20038;-60
2021/01/29 12:17:50;;;;;;;54.72;5.30;;;;;;;;;;5012293;28;20056;-60
2021/01/29 12:20:18;;;;;;;16.08;2.08;;;;;;;;;;5028472;28;20036;-60
2021/01/29 12:22:49;;;;;;;21.58;2.60;;;;;;;;;;5016874;28;20046;-61
2021/01/29 12:25:30;;;;;;;21.45;2.35;;;;;;;;;;5007335;28;20048;-60
2021/01/29 12:28:01;;;;;;;23.52;2.47;;;;;;;;;;4988083;28;20038;-60
2021/01/29 12:30:31;;;;;;;42.55;2.88;;;;;;;;;;5023877;28;20070;-60
2021/01/29 12:33:04;;;;;;;19.75;2.03;;;;;;;;;;5002284;28;20052;-60
2021/01/29 12:35:32;;;;;;;23.38;3.65;;;;;;;;;;5006785;28;20033;-60
2021/01/29 12:38:12;;;;;;;19.40;2.28;;;;;;;;;;5002933;28;20049;-60
2021/01/29 12:40:39;;;;;;;19.23;1.83;;;;;;;;;;5006268;28;20041;-60
2021/01/29 12:43:06;;;;;;;29.85;2.60;;;;;;;;;;5004017;28;20030;-60
2021/01/29 12:45:36;;;;;;;21.08;1.60;;;;;;;;;;5026057;28;20052;-60
2021/01/29 12:48:06;;;;;;;20.88;1.90;;;;;;;;;;5042597;28;20088;-60
2021/01/29 12:50:47;;;;;;;22.65;1.58;;;;;;;;;;5006579;28;20034;-60
2021/01/29 12:53:15;;;;;;;28.67;1.75;;;;;;;;;;5006371;28;20049;-61
2021/01/29 12:55:41;;;;;;;;;;;;;;;;;;5026639;28;20033;-60
2021/01/29 12:58:10;;;;;;;16.70;1.50;;;;;;;;;;5043143;28;19929;-60
2021/01/29 13:00:38;;;;;;;18.58;1.77;;;;;;;;;;5019060;28;20155;-60
2021/01/29 13:03:15;;;;;;;39.53;2.10;;;;;;;;;;5025440;28;20041;-60
2021/01/29 13:05:49;;;;;;;35.05;2.13;;;;;;;;;;5019516;28;20057;-60
2021/01/29 13:08:24;;;;;;;24.08;1.80;;;;;;;;;;5017863;28;20047;-60
2021/01/29 13:10:54;;;;;;;32.42;2.65;;;;;;;;;;5005676;28;20100;-61
2021/01/29 13:13:25;;;;;;;22.73;2.05;;;;;;;;;;5022583;28;20034;-61
2021/01/29 13:16:01;;;;;;;22.05;1.95;;;;;;;;;;5016320;28;20051;-61
2021/01/29 13:18:39;;;;;;;24.38;1.65;;;;;;;;;;5009790;28;20034;-60
2021/01/29 13:21:06;;;;;;;35.47;2.20;;;;;;;;;;5002098;28;20042;-60
2021/01/29 13:23:38;;;;;;;20.17;1.35;;;;;;;;;;5009476;28;20305;-60
2021/01/29 13:26:05;;;;;;;29.92;2.08;;;;;;;;;;4998405;28;20042;-60
2021/01/29 13:28:36;;;;;;;22.65;1.98;;;;;;;;;;5006965;28;20047;-60
2021/01/29 13:31:20;;;;;;;11.55;1.50;;;;;;;;;;5013387;28;20099;-60
2021/01/29 13:33:48;;;;;;;22.02;2.28;;;;;;;;;;5025862;28;20065;-60
2021/01/29 13:36:21;;;;;;;27.35;1.88;;;;;;;;;;5010430;28;20045;-60
2021/01/29 13:38:50;;;;;;;24.63;2.25;;;;;;;;;;5006275;28;20037;-60
2021/01/29 13:41:18;;;;;;;20.63;2.10;;;;;;;;;;5012352;28;20047;-61
2021/01/29 13:43:45;;;;;;;24.58;1.83;;;;;;;;;;5007459;28;20089;-62
2021/01/29 13:46:23;;;;;;;36.15;2.28;;;;;;;;;;5011160;28;20103;-60
2021/01/29 13:48:50;;;;;;;;;;;;;;;;;;5028639;28;20047;-61
2021/01/29 13:51:28;;;;;;;23.67;1.80;;;;;;;;;;5016185;28;19933;-60
2021/01/29 13:53:54;;;;;;;;;;;;;;;;;;5005525;28;20049;-61
2021/01/29 13:56:30;;;;;;;16.25;1.25;;;;;;;;;;5002359;28;19928;-60
2021/01/29 13:59:00;;;;;;;24.98;1.90;;;;;;;;;;5004515;28;20034;-61
2021/01/29 14:01:29;;;;;;;16.50;1.70;;;;;;;;;;5002526;28;20042;-61
2021/01/29 14:03:59;;;;;;;34.03;1.70;;;;;;;;;;4999052;28;20062;-61
2021/01/29 14:06:29;;;;;;;36.58;2.20;;;;;;;;;;4998021;28;20060;-60
2021/01/29 14:08:56;;;;;;;33.08;2.03;;;;;;;;;;5061876;28;20037;-61
2021/01/29 14:11:26;;;;;;;44.85;2.38;;;;;;;;;;5031974;28;20042;-61
2021/01/29 14:14:01;;;;;;;35.63;2.42;;;;;;;;;;5005818;28;20057;-61
2021/01/29 14:16:34;;;;;;;15.13;1.45;;;;;;;;;;5005669;28;20103;-60
2021/01/29 14:19:14;;;;;;;13.48;1.30;;;;;;;;;;5030362;28;20053;-60
2021/01/29 14:21:46;;;;;;;20.15;2.08;;;;;;;;;;5022944;28;20048;-60
2021/01/29 14:24:16;;;;;;;32.58;1.98;;;;;;;;;;5023307;28;20044;-60
2021/01/29 14:26:45;;;;;;;28.83;2.13;;;;;;;;;;5025770;28;20048;-61
2021/01/29 14:29:22;;;;;;;23.25;1.75;;;;;;;;;;5020274;28;20030;-61
2021/01/29 14:31:50;;;;;;;19.55;1.33;;;;;;;;;;5024638;28;20077;-60
2021/01/29 14:34:33;;;;;;;21.20;1.73;;;;;;;;;;5017371;28;20038;-60
2021/01/29 14:37:04;;;;;;;25.98;2.00;;;;;;;;;;5021478;28;20037;-61
2021/01/29 14:39:45;;;;;;;23.40;1.83;;;;;;;;;;5016761;28;20053;-60
2021/01/29 14:42:18;;;;;;;31.35;1.67;;;;;;;;;;4999662;28;20034;-60
2021/01/29 14:44:55;;;;;;;30.38;2.30;;;;;;;;;;5045703;28;20045;-61
2021/01/29 14:47:27;;;;;;;15.35;1.52;;;;;;;;;;5060950;28;20118;-62
2021/01/29 14:49:58;;;;;;;23.98;1.60;;;;;;;;;;5020615;28;20072;-61
2021/01/29 14:52:27;;;;;;;23.17;1.77;;;;;;;;;;5024997;28;20086;-61
2021/01/29 14:54:56;;;;;;;17.73;1.27;;;;;;;;;;5035493;28;20052;-61
2021/01/29 14:57:24;;;;;;;24.05;1.77;;;;;;;;;;5044510;28;20122;-61
2021/01/29 14:59:54;;;;;;;22.55;1.33;;;;;;;;;;5025719;28;20055;-61
2021/01/29 15:02:22;;;;;;;25.92;1.65;;;;;;;;;;5024566;28;20040;-61
2021/01/29 15:04:51;;;;;;;23.15;1.80;;;;;;;;;;5018585;28;20045;-61
2021/01/29 15:07:20;;;;;;;14.52;1.55;;;;;;;;;;5016765;28;20041;-61
2021/01/29 15:09:48;;;;;;;31.42;3.58;;;;;;;;;;5018816;28;20057;-61
2021/01/29 15:12:14;;;;;;;20.23;3.17;;;;;;;;;;4999486;28;20133;-61
2021/01/29 15:14:46;;;;;;;15.55;1.85;;;;;;;;;;5020272;28;20085;-61